Time;durP1;ratioP1;P1;durP2;ratioP2;P2;SDS_P1;SDS_P2;PMS_P1;PMS_P2;Temp;Humidity;BMP_temperature;BMP_pressure;BME280_temperature;BME280_humidity;BME280_pressure;Samples;Min_cycle;Max_cycle;Signal;HPM_P1;HPM_P2
2022/01/12 00:01:16;;;;;;;4.97;2.00;;;4.60;84.90;;;;;;6048949;23;20191;-70
2022/01/12 00:03:50;;;;;;;3.33;1.30;;;4.50;84.90;;;;;;6050986;23;20094;-72
2022/01/12 00:06:20;;;;;;;4.85;1.92;;;4.50;84.80;;;;;;6052639;23;20398;-71
2022/01/12 00:08:48;;;;;;;5.32;2.63;;;4.50;84.90;;;;;;6052457;23;20110;-71
2022/01/12 00:11:22;;;;;;;3.00;1.25;;;4.50;84.90;;;;;;1636751;23;10003469;-72
2022/01/12 00:13:55;;;;;;;5.32;1.40;;;4.50;84.80;;;;;;5633892;23;10001022;-69
2022/01/12 00:16:22;;;;;;;3.58;1.30;;;4.40;84.80;;;;;;6053053;23;20102;-71
2022/01/12 00:18:49;;;;;;;3.80;1.60;;;4.40;84.90;;;;;;6056084;23;20489;-72
2022/01/12 00:21:16;;;;;;;3.25;1.17;;;4.50;84.80;;;;;;6054448;23;20477;-70
2022/01/12 00:23:45;;;;;;;2.50;1.05;;;4.40;84.90;;;;;;6051075;23;20037;-70
2022/01/12 00:26:24;;;;;;;5.43;2.03;;;4.50;84.90;;;;;;6051160;23;20481;-70
2022/01/12 00:34:30;;;;;;;3.40;1.73;;;4.50;84.90;;;;;;6074573;23;20023;-71
2022/01/12 00:36:57;;;;;;;2.95;1.33;;;4.50;84.80;;;;;;6051359;23;20439;-71
2022/01/12 00:39:26;;;;;;;3.90;1.50;;;4.50;84.70;;;;;;6050797;23;20033;-70
2022/01/12 00:41:53;;;;;;;3.30;1.42;;;4.50;84.70;;;;;;6053472;23;20612;-71
2022/01/12 00:44:23;;;;;;;3.53;1.48;;;4.50;84.80;;;;;;6050806;23;20023;-71
2022/01/12 00:46:52;;;;;;;2.45;1.20;;;4.50;84.70;;;;;;6073435;23;20429;-69
2022/01/12 00:49:20;;;;;;;3.20;1.48;;;4.40;84.70;;;;;;6050733;23;20038;-70
2022/01/12 00:51:53;;;;;;;4.43;1.30;;;4.40;84.70;;;;;;6050696;23;20476;-71
2022/01/12 00:54:21;;;;;;;2.05;1.10;;;4.40;84.80;;;;;;6052169;23;20027;-69
2022/01/12 00:56:50;;;;;;;3.45;1.20;;;4.50;84.70;;;;;;6051132;23;20357;-71
2022/01/12 00:59:16;;;;;;;3.63;1.48;;;4.40;84.80;;;;;;6073752;23;20022;-72
2022/01/12 01:01:45;;;;;;;2.92;1.15;;;4.40;84.80;;;;;;6048881;23;20141;-71
2022/01/12 01:04:12;;;;;;;3.25;1.13;;;4.40;84.90;;;;;;6076493;23;20031;-70
2022/01/12 01:06:39;;;;;;;5.22;1.63;;;4.40;84.90;;;;;;6046323;23;20031;-71
2022/01/12 01:09:07;;;;;;;2.28;1.17;;;4.40;84.80;;;;;;6073759;23;20023;-71
2022/01/12 01:11:35;;;;;;;3.25;1.48;;;4.40;84.70;;;;;;6073912;23;20070;-70
2022/01/12 01:14:14;;;;;;;2.78;1.02;;;4.40;84.80;;;;;;6075385;23;20101;-71
2022/01/12 01:16:54;;;;;;;4.15;1.40;;;4.40;84.80;;;;;;6048568;23;20042;-70
2022/01/12 01:27:34;;;;;;;2.20;1.02;;;4.40;84.80;;;;;;6052665;23;20033;-70
2022/01/12 01:30:04;;;;;;;2.70;0.93;;;4.40;84.80;;;;;;6075679;23;20027;-72
2022/01/12 01:32:35;;;;;;;2.95;0.98;;;4.40;84.80;;;;;;6054650;23;20053;-71
2022/01/12 01:35:02;;;;;;;2.35;0.90;;;4.40;84.80;;;;;;6078725;23;20027;-71
2022/01/12 01:37:29;;;;;;;1.80;0.63;;;4.30;84.80;;;;;;6055184;23;20078;-72
2022/01/12 01:39:56;;;;;;;2.00;1.13;;;4.30;84.70;;;;;;6078687;23;20034;-71
2022/01/12 01:42:29;;;;;;;2.28;0.88;;;4.30;84.80;;;;;;6078735;23;20050;-71
2022/01/12 01:53:20;;;;;;;1.48;0.50;;;4.20;84.90;;;;;;6075653;23;20023;-71
2022/01/12 01:55:48;;;;;;;0.75;0.35;;;4.20;84.90;;;;;;6050722;23;20106;-72
2022/01/12 01:58:15;;;;;;;2.72;1.27;;;4.20;84.90;;;;;;6051192;23;20029;-71
2022/01/12 02:00:44;;;;;;;1.65;0.60;;;4.20;84.80;;;;;;6046344;23;20431;-71
2022/01/12 02:03:18;;;;;;;1.75;0.77;;;4.20;84.70;;;;;;6071963;23;20502;-72
2022/01/12 02:05:49;;;;;;;2.28;1.00;;;4.20;84.70;;;;;;6047072;23;20094;-72
2022/01/12 02:08:17;;;;;;;1.73;0.40;;;4.20;84.70;;;;;;6073096;23;20022;-72
2022/01/12 02:11:00;;;;;;;1.25;0.60;;;4.20;84.90;;;;;;2898725;23;10023754;-71
2022/01/12 02:13:34;;;;;;;2.85;1.40;;;4.20;84.90;;;;;;4376830;23;10001236;-72
2022/01/12 02:16:00;;;;;;;3.00;0.90;;;4.20;84.90;;;;;;6051181;23;20034;-70
2022/01/12 02:18:42;;;;;;;1.95;0.82;;;4.20;84.80;;;;;;6072633;23;20776;-71
2022/01/12 02:35:20;;;;;;;1.83;0.82;;;4.10;84.90;;;;;;6052398;23;20026;-70
2022/01/12 02:40:47;;;;;;;2.90;0.88;;;4.00;84.80;;;;;;6003627;23;20026;-70
2022/01/12 02:43:26;;;;;;;2.42;0.88;;;4.00;84.70;;;;;;6054741;23;20410;-69
2022/01/12 02:51:32;;;;;;;1.10;0.68;;;3.90;84.50;;;;;;6054812;23;20350;-70
2022/01/12 02:54:00;;;;;;;3.38;0.85;;;3.80;84.50;;;;;;6053377;23;20033;-71
2022/01/12 02:56:30;;;;;;;1.38;0.47;;;3.80;84.30;;;;;;6056236;23;20440;-71
2022/01/12 02:58:59;;;;;;;1.35;0.55;;;3.80;84.30;;;;;;6054190;23;20027;-71
2022/01/12 03:04:15;;;;;;;1.33;0.50;;;3.70;84.20;;;;;;6048880;23;20026;-70
2022/01/12 03:06:43;;;;;;;2.17;0.70;;;3.70;84.20;;;;;;6053797;23;20030;-71
2022/01/12 03:09:13;;;;;;;3.33;0.90;;;3.70;84.20;;;;;;6052660;23;20082;-71
2022/01/12 03:11:40;;;;;;;3.10;0.60;;;3.60;84.20;;;;;;6053243;23;20274;-71
2022/01/12 03:14:15;;;;;;;1.02;0.40;;;3.60;84.20;;;;;;6073520;23;20070;-71
2022/01/12 03:16:43;;;;;;;2.50;0.40;;;3.60;84.20;;;;;;6073262;23;20209;-69
2022/01/12 03:19:17;;;;;;;1.25;0.45;;;3.60;84.20;;;;;;6049342;23;20058;-70
2022/01/12 03:21:44;;;;;;;5.43;0.80;;;3.50;84.20;;;;;;6073698;23;20107;-70
2022/01/12 03:24:14;;;;;;;0.80;0.40;;;3.50;84.20;;;;;;6075008;23;20563;-71
2022/01/12 03:26:41;;;;;;;1.63;0.70;;;3.50;84.40;;;;;;6073300;23;20035;-70
2022/01/12 03:29:11;;;;;;;2.42;0.82;;;3.50;84.30;;;;;;6075061;23;20457;-72
2022/01/12 03:31:39;;;;;;;1.08;0.47;;;3.60;84.30;;;;;;6054282;23;20319;-72
2022/01/12 03:34:09;;;;;;;2.40;1.20;;;3.60;84.20;;;;;;6052342;23;20027;-70
2022/01/12 03:36:54;;;;;;;1.85;0.80;;;3.50;84.10;;;;;;6074103;23;20349;-70
2022/01/12 03:39:24;;;;;;;3.20;0.95;;;3.50;84.20;;;;;;6051339;23;20022;-70
2022/01/12 03:41:51;;;;;;;2.05;0.75;;;3.50;84.30;;;;;;6049325;23;20480;-71
2022/01/12 03:44:18;;;;;;;1.63;0.60;;;3.50;84.20;;;;;;6050031;23;20050;-71
2022/01/12 03:46:48;;;;;;;2.35;1.02;;;3.50;84.20;;;;;;6049159;23;20109;-72
2022/01/12 03:49:18;;;;;;;2.25;0.80;;;3.50;84.40;;;;;;6050376;23;20090;-71
2022/01/12 03:51:47;;;;;;;1.95;1.05;;;3.50;84.50;;;;;;6047445;23;20394;-71
2022/01/12 03:54:15;;;;;;;2.92;0.95;;;3.50;84.50;;;;;;6074318;23;20027;-70
2022/01/12 03:56:44;;;;;;;2.55;0.90;;;3.50;84.40;;;;;;6051611;23;20026;-71
2022/01/12 03:59:11;;;;;;;1.67;0.73;;;3.50;84.50;;;;;;6073480;23;20027;-70
2022/01/12 04:01:39;;;;;;;2.03;0.82;;;3.50;84.40;;;;;;6069527;23;20075;-72
2022/01/12 04:04:10;;;;;;;1.60;1.00;;;3.50;84.50;;;;;;6050489;23;20023;-71
2022/01/12 04:09:23;;;;;;;1.70;0.57;;;3.50;84.60;;;;;;6074306;23;20038;-71
2022/01/12 04:11:59;;;;;;;1.60;0.60;;;3.50;84.60;;;;;;3886402;23;10022087;-71
2022/01/12 04:14:26;;;;;;;1.67;0.70;;;3.50;84.60;;;;;;2710725;23;10001967;-71
2022/01/12 04:16:54;;;;;;;0.90;0.55;;;3.50;84.50;;;;;;6073482;23;20022;-71
2022/01/12 04:19:23;;;;;;;0.60;0.30;;;3.40;84.60;;;;;;6075451;23;20027;-71
2022/01/12 04:21:50;;;;;;;1.52;0.60;;;3.50;84.50;;;;;;6051629;23;20262;-71
2022/01/12 04:24:17;;;;;;;1.10;0.60;;;3.40;84.40;;;;;;6053466;23;20050;-71
2022/01/12 04:26:46;;;;;;;1.58;0.60;;;3.40;84.50;;;;;;6076783;23;20027;-71
2022/01/12 04:29:14;;;;;;;2.22;0.88;;;3.40;84.50;;;;;;6052495;23;20647;-71
2022/01/12 04:31:42;;;;;;;0.88;0.40;;;3.40;84.50;;;;;;6056061;23;20544;-71
2022/01/12 04:34:09;;;;;;;2.28;0.60;;;3.40;84.40;;;;;;6053312;23;20018;-70
2022/01/12 04:36:36;;;;;;;2.50;0.75;;;3.40;84.40;;;;;;6054322;23;20105;-70
2022/01/12 04:39:04;;;;;;;0.82;0.50;;;3.40;84.40;;;;;;6074958;23;20050;-70
2022/01/12 04:41:30;;;;;;;0.70;0.45;;;3.40;84.40;;;;;;6050975;23;20109;-71
2022/01/12 04:44:01;;;;;;;0.47;0.30;;;3.40;84.30;;;;;;6050600;23;20022;-70
2022/01/12 04:46:48;;;;;;;0.50;0.30;;;3.40;84.40;;;;;;6052624;23;20508;-70
2022/01/12 04:49:37;;;;;;;1.05;0.50;;;3.40;84.30;;;;;;6051248;23;20027;-70
2022/01/12 04:52:04;;;;;;;1.40;0.52;;;3.40;84.30;;;;;;6050292;23;20110;-70
2022/01/12 04:54:32;;;;;;;1.30;0.65;;;3.40;84.30;;;;;;6050943;23;20361;-70
2022/01/12 04:56:59;;;;;;;0.85;0.40;;;3.40;84.30;;;;;;6074960;23;20402;-69
2022/01/12 04:59:27;;;;;;;0.60;0.50;;;3.40;84.30;;;;;;6075733;23;20033;-70
2022/01/12 05:02:09;;;;;;;2.65;0.40;;;3.40;84.30;;;;;;6051042;23;20031;-72
2022/01/12 05:07:28;;;;;;;2.50;0.80;;;3.40;84.50;;;;;;6076301;23;20038;-73
2022/01/12 05:12:47;;;;;;;1.75;0.63;;;3.30;84.50;;;;;;6050581;23;20094;-70
2022/01/12 05:12:54;;;;;;;2.35;0.50;;;3.30;84.60;;;;;;6054061;23;20030;-69
2022/01/12 05:15:28;;;;;;;2.65;0.70;;;3.30;84.50;;;;;;6053758;23;20397;-71
2022/01/12 05:17:57;;;;;;;1.83;0.60;;;3.30;84.50;;;;;;6075068;23;20285;-69
2022/01/12 05:20:25;;;;;;;2.95;0.80;;;3.30;84.40;;;;;;6072138;23;20023;-71
2022/01/12 05:22:53;;;;;;;1.60;0.68;;;3.30;84.50;;;;;;6048582;23;20098;-71
2022/01/12 05:25:22;;;;;;;1.80;1.00;;;3.30;84.50;;;;;;6073071;23;20034;-72
2022/01/12 05:27:49;;;;;;;1.83;0.77;;;3.30;84.50;;;;;;6048817;23;20364;-71
2022/01/12 05:30:16;;;;;;;2.40;0.85;;;3.30;84.50;;;;;;6074052;23;20026;-71
2022/01/12 05:32:46;;;;;;;0.98;0.63;;;3.20;84.40;;;;;;6047645;23;20030;-72
2022/01/12 05:35:17;;;;;;;2.28;0.60;;;3.30;84.40;;;;;;6073603;23;20023;-71
2022/01/12 05:37:45;;;;;;;1.52;1.02;;;3.30;84.50;;;;;;6072585;23;20501;-70
2022/01/12 05:40:14;;;;;;;2.33;1.10;;;3.20;84.50;;;;;;6071767;23;20417;-70
2022/01/12 05:42:43;;;;;;;2.47;0.85;;;3.20;84.60;;;;;;6071309;23;20050;-70
2022/01/12 05:45:11;;;;;;;2.00;0.57;;;3.30;84.60;;;;;;6048945;23;20359;-71
2022/01/12 05:49:34;;;;;;;1.95;0.82;;;3.20;84.60;;;;;;6048007;23;20023;-71
2022/01/12 05:50:39;;;;;;;1.80;0.80;;;3.20;84.50;;;;;;6048453;23;20325;-70
2022/01/12 05:53:14;;;;;;;1.15;0.68;;;3.20;84.50;;;;;;6051321;23;20102;-70
2022/01/12 05:55:44;;;;;;;1.95;0.95;;;3.20;84.50;;;;;;6048874;23;20433;-72
2022/01/12 05:58:12;;;;;;;3.63;0.88;;;3.20;84.40;;;;;;6073837;23;20026;-71
2022/01/12 06:00:39;;;;;;;2.90;0.82;;;3.20;84.40;;;;;;6073384;23;20031;-70
2022/01/12 06:03:05;;;;;;;2.28;1.20;;;3.20;84.40;;;;;;6052055;23;20547;-72
2022/01/12 06:05:32;;;;;;;2.60;0.70;;;3.20;84.50;;;;;;6073813;23;20094;-71
2022/01/12 06:08:01;;;;;;;1.30;0.45;;;3.10;84.50;;;;;;6075007;23;20109;-71
2022/01/12 06:10:32;;;;;;;2.50;0.55;;;3.10;84.40;;;;;;4384221;23;10021713;-72
2022/01/12 06:13:00;;;;;;;1.63;0.73;;;3.10;84.40;;;;;;2084180;23;10002008;-72
2022/01/12 06:15:27;;;;;;;3.53;0.90;;;3.10;84.50;;;;;;6052126;23;20019;-72
2022/01/12 06:17:54;;;;;;;1.58;0.63;;;3.10;84.40;;;;;;6051647;23;20690;-71
2022/01/12 06:20:22;;;;;;;1.35;0.68;;;3.10;84.40;;;;;;6049696;23;20540;-70
2022/01/12 06:23:09;;;;;;;1.38;0.70;;;3.10;84.40;;;;;;6052297;23;20034;-70
2022/01/12 06:25:38;;;;;;;3.63;1.30;;;3.00;84.40;;;;;;6072069;23;20110;-71
2022/01/12 06:28:23;;;;;;;2.42;0.90;;;3.00;84.40;;;;;;6051599;23;20975;-70
2022/01/12 06:33:35;;;;;;;4.07;1.17;;;3.00;84.30;;;;;;6052099;23;20120;-71
2022/01/12 06:36:10;;;;;;;1.10;0.60;;;3.00;84.40;;;;;;6053634;23;20042;-70
2022/01/12 06:38:38;;;;;;;3.03;1.10;;;3.00;84.50;;;;;;6063484;23;20106;-71
2022/01/12 06:41:06;;;;;;;2.00;0.80;;;3.00;84.40;;;;;;6052512;23;20323;-70
2022/01/12 06:43:33;;;;;;;2.75;1.02;;;3.00;84.40;;;;;;6049971;23;20022;-72
2022/01/12 06:46:00;;;;;;;1.02;0.60;;;2.90;84.50;;;;;;6051224;23;20022;-69
2022/01/12 06:48:33;;;;;;;2.30;0.73;;;3.00;84.50;;;;;;6073064;23;20478;-71
2022/01/12 06:51:01;;;;;;;1.80;0.70;;;3.00;84.50;;;;;;6052065;23;20477;-71
2022/01/12 06:53:29;;;;;;;1.70;0.85;;;3.00;84.50;;;;;;6050354;23;20054;-71
2022/01/12 06:55:57;;;;;;;2.83;1.10;;;3.00;84.60;;;;;;6052031;23;20075;-70
2022/01/12 06:58:26;;;;;;;6.18;0.95;;;3.00;84.60;;;;;;6049741;23;20105;-70
2022/01/12 07:00:54;;;;;;;1.60;0.60;;;2.90;84.60;;;;;;6070261;23;20031;-71
2022/01/12 07:03:22;;;;;;;2.63;0.80;;;3.00;84.50;;;;;;6072379;23;20022;-72
2022/01/12 07:05:57;;;;;;;1.73;1.00;;;3.00;84.50;;;;;;6048776;23;20477;-70
2022/01/12 07:08:24;;;;;;;1.35;0.70;;;3.00;84.40;;;;;;6072319;23;20043;-71
2022/01/12 07:10:52;;;;;;;1.20;0.57;;;3.00;84.40;;;;;;6071910;23;20512;-70
2022/01/12 07:13:24;;;;;;;1.50;0.80;;;3.00;84.40;;;;;;6071666;23;20113;-70
2022/01/12 07:15:51;;;;;;;1.33;0.57;;;3.00;84.30;;;;;;6072424;23;20035;-71
2022/01/12 07:18:23;;;;;;;3.10;1.30;;;3.00;84.30;;;;;;6072161;23;20027;-70
2022/01/12 07:20:50;;;;;;;1.05;0.52;;;3.00;84.20;;;;;;6071064;23;20022;-70
2022/01/12 07:23:17;;;;;;;1.65;0.85;;;2.90;84.20;;;;;;6051271;23;20027;-71
2022/01/12 07:25:44;;;;;;;2.58;0.77;;;2.90;84.20;;;;;;6049766;23;20053;-70
2022/01/12 07:28:11;;;;;;;2.88;1.00;;;2.90;84.30;;;;;;6049334;23;20026;-71
2022/01/12 07:30:39;;;;;;;2.22;0.90;;;2.90;84.30;;;;;;6072428;23;20360;-71
2022/01/12 07:33:06;;;;;;;2.28;0.95;;;2.90;84.30;;;;;;6049620;23;20057;-70
2022/01/12 07:35:36;;;;;;;2.72;1.10;;;2.90;84.20;;;;;;6048011;23;20022;-72
2022/01/12 07:38:03;;;;;;;2.13;1.00;;;2.90;84.20;;;;;;6070173;23;20357;-69
2022/01/12 07:40:30;;;;;;;1.50;0.77;;;2.90;84.20;;;;;;6051728;23;20023;-71
2022/01/12 07:42:58;;;;;;;1.02;0.68;;;2.90;84.30;;;;;;6051526;23;20349;-71
2022/01/12 07:45:25;;;;;;;2.17;1.05;;;2.90;84.20;;;;;;6052773;23;20023;-73
2022/01/12 07:47:53;;;;;;;1.10;0.68;;;2.90;84.10;;;;;;6051044;23;20026;-70
2022/01/12 07:50:20;;;;;;;2.70;1.30;;;2.90;84.20;;;;;;6051801;23;20098;-71
2022/01/12 07:52:48;;;;;;;1.50;0.77;;;2.80;84.10;;;;;;6052049;23;20413;-70
2022/01/12 07:55:15;;;;;;;2.25;1.30;;;2.80;84.20;;;;;;6051869;23;20596;-72
2022/01/12 07:57:43;;;;;;;3.40;1.30;;;2.80;84.10;;;;;;6051758;23;20106;-70
2022/01/12 08:00:10;;;;;;;4.68;1.92;;;2.80;84.10;;;;;;6049417;23;20085;-71
2022/01/12 08:02:38;;;;;;;2.95;1.35;;;2.80;84.10;;;;;;6051945;23;20023;-71
2022/01/12 08:05:08;;;;;;;4.35;1.35;;;2.80;84.10;;;;;;6052940;23;20023;-71
2022/01/12 08:07:36;;;;;;;2.80;1.50;;;2.80;84.10;;;;;;6052507;23;20101;-71
2022/01/12 08:10:05;;;;;;;3.10;1.27;;;2.80;84.20;;;;;;5962543;23;21440;-72
2022/01/12 08:12:32;;;;;;;3.55;1.60;;;2.80;84.20;;;;;;1185424;23;10002089;-70
2022/01/12 08:14:59;;;;;;;2.38;1.27;;;2.80;84.20;;;;;;6049986;23;20022;-71
2022/01/12 08:17:26;;;;;;;5.40;2.20;;;2.80;84.30;;;;;;6073286;23;20102;-70
2022/01/12 08:19:55;;;;;;;4.60;1.88;;;2.70;84.30;;;;;;6050543;23;20449;-70
2022/01/12 08:22:23;;;;;;;5.13;1.83;;;2.70;84.30;;;;;;6051962;23;20102;-71
2022/01/12 08:24:50;;;;;;;4.05;1.70;;;2.70;84.30;;;;;;6051969;23;20118;-72
2022/01/12 08:27:18;;;;;;;7.78;2.35;;;2.80;84.30;;;;;;6053463;23;20027;-70
2022/01/12 08:29:45;;;;;;;4.97;2.13;;;2.70;84.40;;;;;;6076641;23;20023;-71
2022/01/12 08:32:12;;;;;;;3.83;1.83;;;2.70;84.40;;;;;;6054970;23;20027;-70
2022/01/12 08:34:39;;;;;;;4.50;2.47;;;2.70;84.40;;;;;;6052657;23;20482;-71
2022/01/12 08:37:06;;;;;;;2.92;1.15;;;2.70;84.40;;;;;;6053470;23;20126;-71
2022/01/12 08:39:34;;;;;;;2.80;1.20;;;2.70;84.50;;;;;;6073013;23;20438;-70
2022/01/12 08:42:01;;;;;;;6.25;1.98;;;2.70;84.50;;;;;;6051747;23;20023;-71
2022/01/12 08:44:29;;;;;;;4.93;1.65;;;2.80;84.40;;;;;;6073558;23;20026;-71
2022/01/12 08:46:56;;;;;;;3.90;1.98;;;2.80;84.40;;;;;;6051398;23;20033;-70
2022/01/12 08:49:23;;;;;;;2.83;1.45;;;2.80;84.40;;;;;;6051310;23;20027;-72
2022/01/12 08:51:50;;;;;;;3.95;1.70;;;2.80;84.50;;;;;;6051173;23;20480;-71
2022/01/12 08:54:18;;;;;;;2.78;1.50;;;2.80;84.60;;;;;;6051173;23;20022;-71
2022/01/12 08:56:47;;;;;;;3.85;1.60;;;2.90;84.60;;;;;;6050802;23;20097;-71
2022/01/12 08:59:14;;;;;;;2.78;1.40;;;2.90;84.60;;;;;;6050614;23;20031;-71
2022/01/12 09:01:41;;;;;;;2.05;1.05;;;2.90;84.60;;;;;;6050529;23;20107;-71
2022/01/12 09:04:08;;;;;;;2.70;1.38;;;2.90;84.60;;;;;;6051723;23;20027;-71
2022/01/12 09:06:35;;;;;;;2.75;1.38;;;2.90;84.70;;;;;;6051588;23;20437;-71
2022/01/12 09:09:02;;;;;;;2.38;1.25;;;2.90;84.60;;;;;;6050478;23;20042;-71
2022/01/12 09:11:32;;;;;;;4.95;1.75;;;2.90;84.50;;;;;;6051068;23;20136;-71
2022/01/12 09:14:01;;;;;;;3.22;1.80;;;2.90;84.50;;;;;;6051419;23;20394;-71
2022/01/12 09:16:29;;;;;;;3.03;1.48;;;2.90;84.60;;;;;;6050731;23;20019;-70
2022/01/12 09:18:56;;;;;;;2.97;1.30;;;2.90;84.60;;;;;;6052879;23;20110;-71
2022/01/12 09:21:24;;;;;;;5.13;2.00;;;2.90;84.60;;;;;;6052476;23;20022;-70
2022/01/12 09:23:51;;;;;;;4.13;1.90;;;3.00;84.70;;;;;;6051741;23;20023;-69
2022/01/12 09:26:18;;;;;;;4.53;2.38;;;3.00;84.70;;;;;;6053116;23;20026;-71
2022/01/12 09:28:45;;;;;;;4.55;2.35;;;3.00;84.70;;;;;;6052683;23;20062;-71
2022/01/12 09:31:15;;;;;;;6.15;2.58;;;3.00;84.70;;;;;;6053600;23;20801;-72
2022/01/12 09:33:42;;;;;;;4.55;2.15;;;3.10;84.70;;;;;;6051865;23;20110;-71
2022/01/12 09:36:09;;;;;;;4.72;2.75;;;3.10;84.70;;;;;;6052718;23;20096;-72
2022/01/12 09:38:36;;;;;;;9.60;4.25;;;3.10;84.90;;;;;;6050964;23;20734;-70
2022/01/12 09:41:04;;;;;;;5.85;4.20;;;3.20;84.80;;;;;;6053189;23;20022;-71
2022/01/12 09:43:34;;;;;;;5.13;2.72;;;3.20;84.70;;;;;;6052790;23;20438;-71
2022/01/12 09:46:01;;;;;;;5.28;2.63;;;3.30;84.80;;;;;;6054212;23;20109;-70
2022/01/12 09:48:34;;;;;;;4.90;2.35;;;3.30;84.70;;;;;;6052225;23;20035;-70
2022/01/12 09:51:04;;;;;;;4.35;2.30;;;3.40;84.80;;;;;;6053338;23;20421;-71
2022/01/12 09:53:32;;;;;;;5.82;3.15;;;3.40;84.80;;;;;;6052330;23;20022;-71
2022/01/12 09:55:59;;;;;;;3.60;2.20;;;3.50;84.80;;;;;;6053310;23;20023;-70
2022/01/12 09:58:32;;;;;;;3.78;2.05;;;3.60;84.80;;;;;;6051457;23;20545;-69
2022/01/12 10:01:00;;;;;;;4.80;1.95;;;3.70;84.70;;;;;;6050280;23;20026;-71
2022/01/12 10:03:31;;;;;;;3.90;2.33;;;3.70;84.60;;;;;;6052469;23;20037;-70
2022/01/12 10:06:00;;;;;;;5.38;2.33;;;3.70;84.40;;;;;;6055355;23;20026;-71
2022/01/12 10:08:36;;;;;;;4.55;2.50;;;3.80;84.40;;;;;;6056147;23;20034;-71
2022/01/12 10:11:17;;;;;;;3.90;2.00;;;3.80;84.30;;;;;;5208770;23;10001137;-71
2022/01/12 10:13:57;;;;;;;6.15;3.05;;;3.90;84.20;;;;;;2917755;23;10001919;-71
2022/01/12 10:16:26;;;;;;;4.63;2.30;;;3.90;84.10;;;;;;6051844;23;20811;-71
2022/01/12 10:18:57;;;;;;;6.00;2.30;;;4.00;84.10;;;;;;6050626;23;20026;-70
2022/01/12 10:21:32;;;;;;;3.92;2.30;;;4.00;83.90;;;;;;6049528;23;20168;-71
2022/01/12 10:24:02;;;;;;;3.85;1.90;;;4.10;83.80;;;;;;6051632;23;20027;-70
2022/01/12 10:26:37;;;;;;;4.75;2.05;;;4.10;83.90;;;;;;6054226;23;20325;-72
2022/01/12 10:29:09;;;;;;;3.97;2.00;;;4.10;83.80;;;;;;6051708;23;20490;-69
2022/01/12 10:31:44;;;;;;;4.40;1.88;;;4.10;83.80;;;;;;6051864;23;20345;-70
2022/01/12 10:34:13;;;;;;;7.03;2.05;;;4.20;83.70;;;;;;6054429;23;20138;-72
2022/01/12 10:36:40;;;;;;;4.68;2.47;;;4.20;83.40;;;;;;6054074;23;20356;-71
2022/01/12 10:39:09;;;;;;;5.38;2.30;;;4.20;83.20;;;;;;6053363;23;20022;-72
2022/01/12 10:41:36;;;;;;;5.13;2.67;;;4.20;83.00;;;;;;6054092;23;20033;-72
2022/01/12 10:44:04;;;;;;;4.97;2.20;;;4.20;82.80;;;;;;6054526;23;20121;-72
2022/01/12 10:46:31;;;;;;;5.70;2.50;;;4.20;82.80;;;;;;6053172;23;20517;-71
2022/01/12 10:49:00;;;;;;;5.43;2.58;;;4.30;82.70;;;;;;6053367;23;20516;-70
2022/01/12 10:51:31;;;;;;;6.20;3.10;;;4.30;82.80;;;;;;6054410;23;20097;-72
2022/01/12 10:54:01;;;;;;;5.55;3.10;;;4.30;82.90;;;;;;6054268;23;20040;-72
2022/01/12 10:56:29;;;;;;;5.07;2.42;;;4.30;82.90;;;;;;6055644;23;20030;-72
2022/01/12 10:58:59;;;;;;;5.55;2.88;;;4.30;82.90;;;;;;6053030;23;20106;-71
2022/01/12 11:01:28;;;;;;;3.95;2.42;;;4.30;82.90;;;;;;6052573;23;20133;-71
2022/01/12 11:03:55;;;;;;;5.97;2.83;;;4.40;83.00;;;;;;6056027;23;21299;-71
2022/01/12 11:06:23;;;;;;;5.07;2.67;;;4.40;82.70;;;;;;6056001;23;20018;-70
2022/01/12 11:08:52;;;;;;;4.80;2.50;;;4.40;82.70;;;;;;6053952;23;20632;-72
2022/01/12 11:11:20;;;;;;;7.40;2.88;;;4.50;82.60;;;;;;6056545;23;20328;-71
2022/01/12 11:13:48;;;;;;;5.90;2.50;;;4.50;82.70;;;;;;6055407;23;20045;-71
2022/01/12 11:16:15;;;;;;;5.00;2.30;;;4.60;81.80;;;;;;6053250;23;20493;-71
2022/01/12 11:18:43;;;;;;;5.05;2.10;;;4.60;81.60;;;;;;6054938;23;20027;-71
2022/01/12 11:21:19;;;;;;;4.38;2.30;;;4.60;81.30;;;;;;6055353;23;20023;-71
2022/01/12 11:23:46;;;;;;;6.13;2.70;;;4.60;81.10;;;;;;6054820;23;20046;-71
2022/01/12 11:26:17;;;;;;;3.85;1.63;;;4.60;80.70;;;;;;6055059;23;20034;-71
2022/01/12 11:28:46;;;;;;;4.53;2.00;;;4.60;80.40;;;;;;6055455;23;20033;-71
2022/01/12 11:31:18;;;;;;;5.28;2.45;;;4.60;80.30;;;;;;6055697;23;20051;-71
2022/01/12 11:33:45;;;;;;;4.13;2.05;;;4.60;79.90;;;;;;6053760;23;20023;-70
2022/01/12 11:36:15;;;;;;;2.72;1.52;;;4.60;80.00;;;;;;6054234;23;20031;-71
2022/01/12 11:38:47;;;;;;;2.83;1.48;;;4.60;80.00;;;;;;6052044;23;20121;-70
2022/01/12 11:41:18;;;;;;;3.38;1.77;;;4.60;79.80;;;;;;6052030;23;20023;-71
2022/01/12 11:43:45;;;;;;;;;;;4.70;79.80;;;;;;6077091;23;20311;-71
2022/01/12 11:46:14;;;;;;;3.20;1.75;;;4.70;79.90;;;;;;6054169;23;19925;-71
2022/01/12 11:48:46;;;;;;;4.85;1.92;;;4.70;79.80;;;;;;6055730;23;20027;-70
2022/01/12 11:51:15;;;;;;;4.97;2.42;;;4.80;79.90;;;;;;6055813;23;20026;-71
2022/01/12 11:53:52;;;;;;;5.32;2.13;;;4.80;79.70;;;;;;6055553;23;20033;-70
2022/01/12 11:56:24;;;;;;;4.28;2.15;;;4.90;79.70;;;;;;6055282;23;20030;-69
2022/01/12 11:59:00;;;;;;;3.58;1.70;;;4.90;79.60;;;;;;6053649;23;20102;-69
2022/01/12 12:01:40;;;;;;;3.30;1.75;;;5.00;79.60;;;;;;6051349;23;20449;-70
2022/01/12 12:04:09;;;;;;;2.90;1.45;;;5.00;79.20;;;;;;6053607;23;20027;-70
2022/01/12 12:06:37;;;;;;;5.15;2.67;;;5.00;79.20;;;;;;6074751;23;20086;-70
2022/01/12 12:09:07;;;;;;;4.57;2.08;;;5.00;79.10;;;;;;6012971;23;20404;-70
2022/01/12 12:11:51;;;;;;;3.60;1.29;;;5.00;79.30;;;;;;3647267;23;10002479;-71
2022/01/12 12:14:18;;;;;;;3.17;1.20;;;5.10;79.20;;;;;;4381113;23;10001691;-72
2022/01/12 12:16:46;;;;;;;4.25;2.03;;;5.10;79.10;;;;;;6052807;23;20023;-71
2022/01/12 12:19:13;;;;;;;4.05;1.65;;;5.10;78.90;;;;;;6054963;23;20031;-71
2022/01/12 12:21:47;;;;;;;4.97;1.85;;;5.10;78.80;;;;;;6054692;23;20517;-72
2022/01/12 12:24:16;;;;;;;4.10;2.17;;;5.10;78.90;;;;;;6055705;23;20083;-71
2022/01/12 12:26:51;;;;;;;4.60;1.70;;;5.20;79.00;;;;;;6054631;23;20038;-71
2022/01/12 12:29:19;;;;;;;3.95;1.88;;;5.10;78.40;;;;;;6055567;23;20054;-70
2022/01/12 12:31:49;;;;;;;4.40;2.13;;;5.20;78.60;;;;;;6054846;23;20022;-71
2022/01/12 12:34:16;;;;;;;3.13;1.77;;;5.20;78.60;;;;;;6055921;23;20027;-71
2022/01/12 12:36:43;;;;;;;3.33;1.60;;;5.20;78.50;;;;;;6055223;23;20030;-71
2022/01/12 12:39:12;;;;;;;3.85;1.90;;;5.20;78.40;;;;;;6055328;23;20027;-71
2022/01/12 12:41:42;;;;;;;3.67;1.95;;;5.20;78.00;;;;;;6056275;23;20019;-71
2022/01/12 12:44:21;;;;;;;4.60;2.15;;;5.20;78.10;;;;;;6053522;23;20023;-71
2022/01/12 12:46:48;;;;;;;5.22;2.03;;;5.20;77.60;;;;;;6050715;23;20196;-71
2022/01/12 12:49:15;;;;;;;3.45;1.38;;;5.10;77.80;;;;;;6054708;23;20022;-71
2022/01/12 12:51:42;;;;;;;3.58;1.70;;;5.10;77.80;;;;;;6054767;23;20523;-71
2022/01/12 12:54:12;;;;;;;4.47;1.52;;;5.10;78.10;;;;;;6055997;23;20046;-69
2022/01/12 12:56:42;;;;;;;5.10;1.90;;;5.20;77.90;;;;;;6054059;23;20023;-69
2022/01/12 12:59:11;;;;;;;6.10;2.33;;;5.20;77.40;;;;;;6055592;23;20493;-70
2022/01/12 13:01:38;;;;;;;5.88;2.65;;;5.20;77.60;;;;;;6051553;23;20101;-71
2022/01/12 13:04:05;;;;;;;4.90;2.35;;;5.20;77.50;;;;;;6054796;23;20022;-70
2022/01/12 13:06:34;;;;;;;3.17;1.83;;;5.20;77.60;;;;;;6055639;23;20026;-70
2022/01/12 13:09:03;;;;;;;3.47;1.48;;;5.20;77.40;;;;;;6055493;23;20039;-71
2022/01/12 13:11:32;;;;;;;3.28;1.55;;;5.30;77.40;;;;;;6056227;23;20446;-72
2022/01/12 13:13:59;;;;;;;3.42;1.90;;;5.30;77.10;;;;;;6056424;23;20211;-71
2022/01/12 13:16:28;;;;;;;4.35;1.75;;;5.30;77.00;;;;;;6056245;23;20796;-70
2022/01/12 13:19:04;;;;;;;5.13;2.22;;;5.30;77.20;;;;;;6055664;23;20023;-69
2022/01/12 13:21:32;;;;;;;4.00;2.17;;;5.40;77.30;;;;;;6056267;23;20813;-71
2022/01/12 13:24:00;;;;;;;4.90;1.88;;;5.40;77.00;;;;;;6057668;23;20027;-71
2022/01/12 13:26:34;;;;;;;4.88;1.88;;;5.40;76.80;;;;;;6058446;23;20219;-71
2022/01/12 13:29:07;;;;;;;4.05;1.52;;;5.40;76.80;;;;;;6057294;23;20518;-71
2022/01/12 13:31:35;;;;;;;3.40;1.70;;;5.40;76.90;;;;;;6057023;23;20399;-72
2022/01/12 13:34:05;;;;;;;5.78;2.17;;;5.40;76.90;;;;;;6079050;23;20089;-72
2022/01/12 13:36:33;;;;;;;2.88;1.48;;;5.40;76.70;;;;;;6055568;23;20181;-71
2022/01/12 13:39:04;;;;;;;4.80;2.00;;;5.40;76.50;;;;;;6054710;23;20027;-70
2022/01/12 13:41:32;;;;;;;4.03;1.75;;;5.40;76.70;;;;;;6053433;23;20114;-71
2022/01/12 13:44:05;;;;;;;4.43;1.88;;;5.50;76.80;;;;;;6055370;23;20023;-70
2022/01/12 13:46:37;;;;;;;3.20;1.40;;;5.50;76.70;;;;;;6054362;23;20030;-72
2022/01/12 13:49:20;;;;;;;4.80;1.80;;;5.50;76.20;;;;;;6055346;23;20029;-71
2022/01/12 13:51:58;;;;;;;5.53;1.90;;;5.50;76.10;;;;;;6054601;23;20034;-72
2022/01/12 13:54:29;;;;;;;3.67;1.50;;;5.50;76.20;;;;;;6055529;23;20026;-70
2022/01/12 13:56:57;;;;;;;4.82;1.88;;;5.60;76.20;;;;;;6054615;23;20461;-72
2022/01/12 13:59:28;;;;;;;5.13;1.95;;;5.60;76.00;;;;;;6054813;23;20023;-72
2022/01/12 14:01:58;;;;;;;4.97;1.88;;;5.50;75.80;;;;;;6051618;23;20522;-70
2022/01/12 14:04:30;;;;;;;3.58;1.65;;;5.60;75.90;;;;;;6054754;23;20207;-70